Time;durP1;ratioP1;P1;durP2;ratioP2;P2;SDS_P1;SDS_P2;PMS_P1;PMS_P2;Temp;Humidity;BMP_temperature;BMP_pressure;BME280_temperature;BME280_humidity;BME280_pressure;Samples;Min_cycle;Max_cycle;Signal;HPM_P1;HPM_P2
2023/08/30 00:00:54;;;;;;;11.50;7.60;;;14.60;99.90;;;;;;5037998;28;20098;-87
2023/08/30 00:03:20;;;;;;;12.10;7.72;;;14.60;99.90;;;;;;5035315;28;20338;-87
2023/08/30 00:05:46;;;;;;;10.82;7.43;;;14.50;99.90;;;;;;5033806;28;20052;-88
2023/08/30 00:08:13;;;;;;;11.43;7.68;;;14.50;99.90;;;;;;5043149;28;20416;-87
2023/08/30 00:10:39;;;;;;;12.23;8.38;;;14.50;99.90;;;;;;5064137;28;20051;-87
2023/08/30 00:13:05;;;;;;;11.63;7.90;;;14.50;99.90;;;;;;5055267;28;20044;-87
2023/08/30 00:15:31;;;;;;;12.50;7.88;;;14.40;99.90;;;;;;5055231;28;20032;-88
2023/08/30 00:17:56;;;;;;;13.02;7.95;;;14.40;99.90;;;;;;5071446;28;20104;-87
2023/08/30 00:20:22;;;;;;;12.02;8.27;;;14.40;99.90;;;;;;5037577;28;20044;-87
2023/08/30 00:22:50;;;;;;;11.52;7.97;;;14.40;99.90;;;;;;5035069;28;20075;-87
2023/08/30 00:25:16;;;;;;;11.48;7.72;;;14.40;99.90;;;;;;5048392;28;20048;-87
2023/08/30 00:27:42;;;;;;;12.50;8.60;;;14.40;99.90;;;;;;5034962;28;20036;-87
2023/08/30 00:30:09;;;;;;;12.30;8.52;;;14.40;99.90;;;;;;5022666;28;20105;-88
2023/08/30 00:32:35;;;;;;;13.23;8.55;;;14.30;99.90;;;;;;5044108;28;20093;-88
2023/08/30 00:35:02;;;;;;;13.60;8.30;;;14.30;99.90;;;;;;5024017;28;20055;-87
2023/08/30 00:37:27;;;;;;;11.80;7.85;;;14.30;99.90;;;;;;5071418;28;20509;-88
2023/08/30 00:39:53;;;;;;;11.85;8.07;;;14.30;99.90;;;;;;5035440;28;20048;-88
2023/08/30 00:42:19;;;;;;;11.07;7.57;;;14.20;99.90;;;;;;5067759;28;20620;-88
2023/08/30 00:44:44;;;;;;;11.52;7.35;;;14.20;99.90;;;;;;5064202;28;20233;-87
2023/08/30 00:47:10;;;;;;;11.65;7.90;;;14.20;99.90;;;;;;5018239;28;20036;-87
2023/08/30 00:49:36;;;;;;;11.55;7.75;;;14.10;99.90;;;;;;5043132;28;20052;-87
2023/08/30 00:52:06;;;;;;;13.35;7.80;;;14.10;99.90;;;;;;5032649;28;20401;-88
2023/08/30 00:54:32;;;;;;;11.68;7.55;;;14.10;99.90;;;;;;5046264;28;20047;-87
2023/08/30 00:56:57;;;;;;;12.38;7.78;;;14.10;99.90;;;;;;5034546;28;20040;-87
2023/08/30 00:59:24;;;;;;;12.52;8.10;;;14.10;99.90;;;;;;5045192;28;20044;-87
2023/08/30 01:01:50;;;;;;;11.85;8.02;;;14.10;99.90;;;;;;5054214;28;20060;-87
2023/08/30 01:04:16;;;;;;;11.90;7.78;;;14.10;99.90;;;;;;5051468;28;20102;-87
2023/08/30 01:06:42;;;;;;;12.65;7.82;;;14.00;99.90;;;;;;5067155;28;20455;-87
2023/08/30 01:09:09;;;;;;;13.70;8.75;;;14.10;99.90;;;;;;5051640;28;20040;-87
2023/08/30 01:11:53;;;;;;;12.18;8.27;;;14.00;99.90;;;;;;5049397;28;20105;-88
2023/08/30 01:14:25;;;;;;;12.88;7.75;;;14.00;99.90;;;;;;5051417;28;20037;-87
2023/08/30 01:16:51;;;;;;;12.95;8.23;;;14.00;99.90;;;;;;5052417;28;20067;-88
2023/08/30 01:19:33;;;;;;;12.02;7.75;;;14.00;99.90;;;;;;5057219;28;20056;-87
2023/08/30 01:22:08;;;;;;;12.63;7.20;;;14.00;99.90;;;;;;5058445;28;20047;-88
2023/08/30 01:24:49;;;;;;;11.43;7.50;;;13.90;99.90;;;;;;5058562;28;20404;-87
2023/08/30 01:27:17;;;;;;;11.35;7.75;;;13.90;99.90;;;;;;5074242;28;20493;-88
2023/08/30 01:29:44;;;;;;;12.15;7.45;;;13.90;99.90;;;;;;5058380;28;20046;-87
2023/08/30 01:32:11;;;;;;;11.40;7.50;;;13.90;99.90;;;;;;5057964;28;20553;-87
2023/08/30 01:34:38;;;;;;;12.00;7.30;;;13.80;99.90;;;;;;5055641;28;20067;-88
2023/08/30 01:37:08;;;;;;;13.00;7.60;;;13.80;99.90;;;;;;5058200;28;20036;-87
2023/08/30 01:39:37;;;;;;;11.52;7.10;;;13.80;99.90;;;;;;5055521;28;20036;-87
2023/08/30 01:42:04;;;;;;;12.07;7.72;;;14.70;99.90;;;;;;5038103;28;20190;-87
2023/08/30 01:44:32;;;;;;;12.32;7.80;;;13.80;99.90;;;;;;5035583;28;20040;-86
2023/08/30 01:46:58;;;;;;;11.80;7.30;;;13.80;99.90;;;;;;5074722;28;20040;-87
2023/08/30 01:49:25;;;;;;;12.23;6.82;;;13.80;99.90;;;;;;5074974;28;20420;-87
2023/08/30 01:51:52;;;;;;;11.52;7.05;;;13.80;99.90;;;;;;5037516;28;20048;-87
2023/08/30 01:54:19;;;;;;;12.23;7.03;;;13.80;99.90;;;;;;5067279;28;20044;-87
2023/08/30 01:56:47;;;;;;;11.30;7.25;;;13.80;99.90;;;;;;5057341;28;20032;-87
2023/08/30 01:59:13;;;;;;;11.60;7.15;;;13.80;99.90;;;;;;5037839;28;20037;-87
2023/08/30 02:01:39;;;;;;;11.48;7.05;;;13.80;99.90;;;;;;5036662;28;20056;-87
2023/08/30 02:04:05;;;;;;;12.23;7.28;;;13.70;99.90;;;;;;5046773;28;20052;-87
2023/08/30 02:06:33;;;;;;;11.77;7.28;;;13.70;99.90;;;;;;5072969;28;20067;-87
2023/08/30 02:09:04;;;;;;;11.55;6.85;;;13.70;99.90;;;;;;5057972;28;20126;-87
2023/08/30 02:11:34;;;;;;;12.45;7.43;;;13.70;99.90;;;;;;5057307;28;20040;-87
2023/08/30 02:14:00;;;;;;;12.90;6.90;;;13.70;99.90;;;;;;5057850;28;20039;-87
2023/08/30 02:16:28;;;;;;;11.93;6.97;;;13.60;99.90;;;;;;5052713;28;20491;-87
2023/08/30 02:18:55;;;;;;;11.93;6.90;;;13.60;99.90;;;;;;5049573;28;20039;-87
2023/08/30 02:21:20;;;;;;;12.52;7.97;;;13.60;99.90;;;;;;5057140;28;20501;-87
2023/08/30 02:23:50;;;;;;;12.57;7.95;;;13.50;99.90;;;;;;5057279;28;20039;-87
2023/08/30 02:26:21;;;;;;;13.32;8.30;;;13.50;99.90;;;;;;5053173;28;20044;-87
2023/08/30 02:28:47;;;;;;;14.40;8.35;;;13.50;99.90;;;;;;5028114;28;20113;-87
2023/08/30 02:31:12;;;;;;;12.05;7.90;;;13.50;99.90;;;;;;5034567;28;20056;-87
2023/08/30 02:33:38;;;;;;;12.73;8.10;;;13.50;99.90;;;;;;5034709;28;20041;-86
2023/08/30 02:36:04;;;;;;;12.85;7.68;;;13.40;99.90;;;;;;5039916;28;20035;-87
2023/08/30 02:38:30;;;;;;;12.80;7.57;;;13.40;99.90;;;;;;5037121;28;20087;-87
2023/08/30 02:40:56;;;;;;;12.10;7.78;;;13.40;99.90;;;;;;5035799;28;20543;-87
2023/08/30 02:43:22;;;;;;;13.10;8.32;;;13.40;99.90;;;;;;5053814;28;20056;-86
2023/08/30 02:45:48;;;;;;;12.52;7.57;;;13.40;99.90;;;;;;5086911;28;20496;-86
2023/08/30 02:48:14;;;;;;;12.57;8.00;;;13.30;99.90;;;;;;5053070;28;20037;-86
2023/08/30 02:50:40;;;;;;;11.63;7.60;;;13.30;99.90;;;;;;5050892;28;20581;-87
2023/08/30 02:53:08;;;;;;;13.35;7.97;;;13.40;99.90;;;;;;5056560;28;20064;-87
2023/08/30 02:55:34;;;;;;;11.35;7.93;;;13.30;99.90;;;;;;5053662;28;20040;-88
2023/08/30 02:58:00;;;;;;;13.13;8.27;;;13.30;99.90;;;;;;5053214;28;20044;-87
2023/08/30 03:00:26;;;;;;;12.57;8.20;;;13.30;99.90;;;;;;5030519;28;20488;-86
2023/08/30 03:02:52;;;;;;;14.45;8.68;;;13.30;99.90;;;;;;5055036;28;20415;-87
2023/08/30 03:05:18;;;;;;;11.68;7.72;;;13.30;99.90;;;;;;5073187;28;20552;-87
2023/08/30 03:07:44;;;;;;;12.73;8.25;;;13.30;99.90;;;;;;5069934;28;20056;-87
2023/08/30 03:10:11;;;;;;;12.70;8.18;;;13.30;99.90;;;;;;5028089;28;20501;-87
2023/08/30 03:12:37;;;;;;;12.20;7.93;;;13.30;99.90;;;;;;5051033;28;20548;-87
2023/08/30 03:15:04;;;;;;;11.70;7.63;;;13.30;99.90;;;;;;5046891;28;20131;-88
2023/08/30 03:17:30;;;;;;;13.40;7.57;;;13.30;99.90;;;;;;5072656;28;20048;-87
2023/08/30 03:19:55;;;;;;;12.13;7.57;;;13.20;99.90;;;;;;5042995;28;20036;-87
2023/08/30 03:22:21;;;;;;;11.70;7.57;;;13.20;99.90;;;;;;5051298;28;20128;-87
2023/08/30 03:24:47;;;;;;;12.05;7.43;;;13.10;99.90;;;;;;5056461;28;20043;-87
2023/08/30 03:27:13;;;;;;;11.15;7.38;;;13.10;99.90;;;;;;5021084;28;20033;-87
2023/08/30 03:29:39;;;;;;;11.48;7.25;;;13.20;99.90;;;;;;5036485;28;20032;-87
2023/08/30 03:32:05;;;;;;;12.65;7.85;;;13.10;99.90;;;;;;5050166;28;20676;-87
2023/08/30 03:34:30;;;;;;;11.65;7.32;;;13.10;99.90;;;;;;5052882;28;20049;-87
2023/08/30 03:36:56;;;;;;;12.50;7.85;;;13.20;99.90;;;;;;5046363;28;20049;-87
2023/08/30 03:39:23;;;;;;;14.38;7.55;;;13.10;99.90;;;;;;5035720;28;20044;-87
2023/08/30 03:41:49;;;;;;;11.82;7.35;;;13.10;99.90;;;;;;5047705;28;20043;-87
2023/08/30 03:44:15;;;;;;;12.45;7.20;;;13.10;99.90;;;;;;5019334;28;20127;-87
2023/08/30 03:46:41;;;;;;;12.63;7.18;;;13.10;99.90;;;;;;5027837;28;20038;-87
2023/08/30 03:49:06;;;;;;;12.18;7.25;;;13.10;99.90;;;;;;5034098;28;20028;-87
2023/08/30 03:51:32;;;;;;;12.30;7.25;;;13.10;99.90;;;;;;5026580;28;20044;-86
2023/08/30 03:53:58;;;;;;;12.73;6.95;;;13.10;99.90;;;;;;5033031;28;20040;-87
2023/08/30 03:56:23;;;;;;;13.18;7.82;;;13.00;99.90;;;;;;5045625;28;20044;-87
2023/08/30 03:58:49;;;;;;;11.35;7.07;;;13.00;99.90;;;;;;5038489;28;20072;-86
2023/08/30 04:01:15;;;;;;;13.80;7.90;;;13.00;99.90;;;;;;5051727;28;20052;-87
2023/08/30 04:03:40;;;;;;;13.00;7.43;;;13.10;99.90;;;;;;5033459;28;20056;-87
2023/08/30 04:06:06;;;;;;;11.75;7.35;;;13.10;99.90;;;;;;5035458;28;20041;-87
2023/08/30 04:08:32;;;;;;;13.23;7.70;;;13.00;99.90;;;;;;5031804;28;20051;-87
2023/08/30 04:10:58;;;;;;;12.02;7.18;;;13.10;99.90;;;;;;5055196;28;20448;-87
2023/08/30 04:13:23;;;;;;;11.52;7.25;;;13.10;99.90;;;;;;5052397;28;20115;-87
2023/08/30 04:15:50;;;;;;;11.43;7.05;;;13.00;99.90;;;;;;5035776;28;20094;-87
2023/08/30 04:18:17;;;;;;;11.27;7.00;;;13.00;99.90;;;;;;5048788;28;20044;-87
2023/08/30 04:20:46;;;;;;;11.73;6.97;;;13.00;99.90;;;;;;5052232;28;20040;-87
2023/08/30 04:23:13;;;;;;;12.60;7.15;;;13.00;99.90;;;;;;5048161;28;20040;-87
2023/08/30 04:25:39;;;;;;;12.25;7.03;;;12.90;99.90;;;;;;5068467;28;20036;-87
2023/08/30 04:28:04;;;;;;;11.55;7.03;;;12.90;99.90;;;;;;5044333;28;20119;-87
2023/08/30 04:30:30;;;;;;;11.82;6.82;;;12.90;99.90;;;;;;5054220;28;20028;-87
2023/08/30 04:32:56;;;;;;;12.00;6.68;;;12.90;99.90;;;;;;5034830;28;20036;-87
2023/08/30 04:35:22;;;;;;;12.43;6.55;;;12.80;99.90;;;;;;5049863;28;20060;-87
2023/08/30 04:37:50;;;;;;;11.27;6.53;;;12.80;99.90;;;;;;5061958;28;20040;-87
2023/08/30 04:40:16;;;;;;;13.40;7.05;;;12.80;99.90;;;;;;5034886;28;20040;-87
2023/08/30 04:42:41;;;;;;;10.40;6.43;;;12.80;99.90;;;;;;5024918;28;20047;-87
2023/08/30 04:45:09;;;;;;;11.98;7.22;;;12.80;99.90;;;;;;5034400;28;20057;-87
2023/08/30 04:47:35;;;;;;;12.00;6.97;;;12.80;99.90;;;;;;5051162;28;20044;-88
2023/08/30 04:50:01;;;;;;;10.93;6.65;;;12.80;99.90;;;;;;5067353;28;20040;-87
2023/08/30 04:52:26;;;;;;;13.48;6.97;;;12.80;99.90;;;;;;5053402;28;20090;-86
2023/08/30 04:54:52;;;;;;;12.43;7.32;;;12.80;99.90;;;;;;5072062;28;20036;-86
2023/08/30 04:57:18;;;;;;;12.55;7.35;;;12.80;99.90;;;;;;5041124;28;20041;-86
2023/08/30 04:59:45;;;;;;;13.32;7.13;;;12.80;99.90;;;;;;5056093;28;20055;-86
2023/08/30 05:02:11;;;;;;;11.40;7.00;;;12.80;99.90;;;;;;5044874;28;20063;-85
2023/08/30 05:04:36;;;;;;;12.30;7.35;;;12.90;99.90;;;;;;5055309;28;20036;-86
2023/08/30 05:07:03;;;;;;;12.55;6.97;;;12.90;99.90;;;;;;5041422;28;20035;-86
2023/08/30 05:09:30;;;;;;;12.20;6.88;;;12.90;99.90;;;;;;5054293;28;20043;-86
2023/08/30 05:11:56;;;;;;;14.93;7.13;;;12.90;99.90;;;;;;5057542;28;20082;-86
2023/08/30 05:14:22;;;;;;;11.38;7.10;;;12.90;99.90;;;;;;5033570;28;20196;-86
2023/08/30 05:16:49;;;;;;;11.63;7.13;;;12.90;99.90;;;;;;5056600;28;20067;-87
2023/08/30 05:19:16;;;;;;;12.18;7.13;;;12.90;99.90;;;;;;5041051;28;20036;-87
2023/08/30 05:21:45;;;;;;;11.35;6.82;;;12.90;99.90;;;;;;5061014;28;20051;-86
2023/08/30 05:24:11;;;;;;;11.88;6.72;;;12.90;99.90;;;;;;5074590;28;20489;-86
2023/08/30 05:26:37;;;;;;;11.98;6.95;;;12.90;99.90;;;;;;5038586;28;20036;-86
2023/08/30 05:29:03;;;;;;;11.27;6.70;;;13.00;99.90;;;;;;5041238;28;20041;-86
2023/08/30 05:31:29;;;;;;;12.02;7.22;;;12.90;99.90;;;;;;5057981;28;20109;-87
2023/08/30 05:33:55;;;;;;;12.00;7.57;;;12.90;99.90;;;;;;5061384;28;20493;-86
2023/08/30 05:36:21;;;;;;;11.77;6.75;;;12.90;99.90;;;;;;5026907;28;20106;-86
2023/08/30 05:38:46;;;;;;;12.13;7.30;;;12.90;99.90;;;;;;5057991;28;20062;-87
2023/08/30 05:41:12;;;;;;;12.02;7.43;;;12.90;99.90;;;;;;5038032;28;20042;-86
2023/08/30 05:43:38;;;;;;;11.98;7.22;;;12.90;99.90;;;;;;5057950;28;20540;-87
2023/08/30 05:46:04;;;;;;;12.30;7.38;;;12.90;99.90;;;;;;5072178;28;20097;-87
2023/08/30 05:48:30;;;;;;;11.65;6.57;;;12.90;99.90;;;;;;5041010;28;20115;-87
2023/08/30 05:50:56;;;;;;;12.25;6.80;;;12.90;99.90;;;;;;5051885;28;20127;-87
2023/08/30 05:53:22;;;;;;;11.98;7.15;;;13.00;99.90;;;;;;5057920;28;20048;-86
2023/08/30 05:55:48;;;;;;;12.32;7.32;;;13.00;99.90;;;;;;5034228;28;20036;-88
2023/08/30 05:58:15;;;;;;;12.05;6.97;;;13.10;99.90;;;;;;5056898;28;20037;-87
2023/08/30 06:00:41;;;;;;;11.73;7.25;;;13.10;99.90;;;;;;5059244;28;20044;-86
2023/08/30 06:03:06;;;;;;;11.65;7.47;;;13.10;99.90;;;;;;5060239;28;20101;-87
2023/08/30 06:05:33;;;;;;;12.70;7.72;;;13.20;99.90;;;;;;5056708;28;20051;-87
2023/08/30 06:07:59;;;;;;;11.80;7.30;;;13.20;99.90;;;;;;5057188;28;20036;-86
2023/08/30 06:10:24;;;;;;;13.60;7.63;;;13.30;99.90;;;;;;5054455;28;20043;-86
2023/08/30 06:12:50;;;;;;;11.05;6.63;;;13.40;99.90;;;;;;5037975;28;20646;-87
2023/08/30 06:15:16;;;;;;;12.77;7.45;;;13.50;99.90;;;;;;5054096;28;20115;-86
2023/08/30 06:17:42;;;;;;;13.45;7.28;;;13.60;99.90;;;;;;5036228;28;20056;-86
2023/08/30 06:20:08;;;;;;;11.43;6.90;;;13.60;99.90;;;;;;5037767;28;20460;-87
2023/08/30 06:22:33;;;;;;;12.05;7.05;;;13.60;99.90;;;;;;5034624;28;20118;-87
2023/08/30 06:24:59;;;;;;;13.00;7.50;;;13.70;99.90;;;;;;5057479;28;20130;-87
2023/08/30 06:27:25;;;;;;;11.57;6.90;;;13.80;99.90;;;;;;5021150;28;20079;-87
2023/08/30 06:29:50;;;;;;;11.98;6.93;;;13.80;99.90;;;;;;5037489;28;20044;-86
2023/08/30 06:32:17;;;;;;;13.13;7.05;;;13.80;99.90;;;;;;5047240;28;20051;-87
2023/08/30 06:34:43;;;;;;;11.90;7.10;;;13.90;99.90;;;;;;5024152;28;20036;-86
2023/08/30 06:37:08;;;;;;;12.57;7.22;;;13.90;99.90;;;;;;5049679;28;20042;-86
2023/08/30 06:39:36;;;;;;;12.27;7.10;;;14.00;99.90;;;;;;5020760;28;20040;-87
2023/08/30 06:42:03;;;;;;;12.38;6.45;;;14.10;99.90;;;;;;5048623;28;20036;-87
2023/08/30 06:44:29;;;;;;;12.18;6.80;;;14.10;99.90;;;;;;5070676;28;20071;-87
2023/08/30 06:46:56;;;;;;;12.23;6.93;;;14.20;99.90;;;;;;5028516;28;20044;-86
2023/08/30 06:49:22;;;;;;;11.88;7.15;;;14.30;99.90;;;;;;5035138;28;20044;-87
2023/08/30 06:51:48;;;;;;;11.70;6.90;;;14.40;99.90;;;;;;5051361;28;20032;-87
2023/08/30 06:54:14;;;;;;;12.23;6.82;;;14.50;99.90;;;;;;5056752;28;20094;-87
2023/08/30 06:56:39;;;;;;;12.32;6.90;;;14.50;99.90;;;;;;5053533;28;20173;-87
2023/08/30 06:59:05;;;;;;;12.50;6.75;;;14.60;99.90;;;;;;5034951;28;20044;-86
2023/08/30 07:01:31;;;;;;;12.95;6.53;;;14.60;99.90;;;;;;5033357;28;20055;-86
2023/08/30 07:03:57;;;;;;;12.23;7.10;;;14.60;99.90;;;;;;5034800;28;20145;-86
2023/08/30 07:06:23;;;;;;;11.57;6.47;;;14.60;99.90;;;;;;5053187;28;20503;-87
2023/08/30 07:08:48;;;;;;;13.23;6.90;;;14.60;99.90;;;;;;5053218;28;20040;-86
2023/08/30 07:11:14;;;;;;;11.48;6.35;;;14.70;99.90;;;;;;5033049;28;20052;-86
2023/08/30 07:13:40;;;;;;;11.55;6.25;;;14.70;99.90;;;;;;5045963;28;20033;-86
2023/08/30 07:16:05;;;;;;;11.68;6.18;;;14.70;99.90;;;;;;5015678;28;20044;-88
2023/08/30 07:18:31;;;;;;;12.15;6.88;;;14.80;99.90;;;;;;5063008;28;20039;-86
2023/08/30 07:20:57;;;;;;;11.85;5.85;;;14.80;99.90;;;;;;5033211;28;20521;-86
2023/08/30 07:23:23;;;;;;;11.98;5.93;;;14.80;99.90;;;;;;5040488;28;20036;-86
2023/08/30 07:25:48;;;;;;;11.90;6.47;;;14.90;99.90;;;;;;5030154;28;20037;-86
2023/08/30 07:28:14;;;;;;;12.55;6.28;;;14.90;99.90;;;;;;5056034;28;20072;-86
2023/08/30 07:30:40;;;;;;;11.32;6.25;;;15.00;99.90;;;;;;5032080;28;20051;-87
2023/08/30 07:33:05;;;;;;;10.88;5.65;;;15.00;99.90;;;;;;5032664;28;20045;-87
2023/08/30 07:35:32;;;;;;;12.88;6.60;;;15.00;99.90;;;;;;5048444;28;20481;-87
2023/08/30 07:37:58;;;;;;;11.13;5.63;;;15.00;99.90;;;;;;5048706;28;20103;-87
2023/08/30 07:40:26;;;;;;;11.75;6.10;;;15.00;99.90;;;;;;5028821;28;20045;-87
2023/08/30 07:42:54;;;;;;;10.45;5.78;;;15.10;99.90;;;;;;5032184;28;20537;-86
2023/08/30 07:45:21;;;;;;;11.43;6.10;;;15.10;99.90;;;;;;5045454;28;20080;-86
2023/08/30 07:47:46;;;;;;;12.32;6.35;;;15.20;99.90;;;;;;5031951;28;20182;-87
2023/08/30 07:50:12;;;;;;;10.82;5.95;;;15.20;99.90;;;;;;5029258;28;20045;-87
2023/08/30 07:52:38;;;;;;;11.25;5.88;;;15.30;99.90;;;;;;5019094;28;20064;-88
2023/08/30 07:55:04;;;;;;;11.15;5.82;;;15.40;99.90;;;;;;5042808;28;20173;-87
2023/08/30 07:57:30;;;;;;;11.70;5.95;;;15.50;99.90;;;;;;5031920;28;20440;-86
2023/08/30 07:59:56;;;;;;;10.90;5.72;;;15.60;99.90;;;;;;5061511;28;20036;-86
2023/08/30 08:02:21;;;;;;;12.30;5.95;;;15.70;99.90;;;;;;5047816;28;20428;-87
2023/08/30 08:04:49;;;;;;;11.35;6.20;;;15.80;99.90;;;;;;5023803;28;20045;-88
2023/08/30 08:07:15;;;;;;;11.82;6.25;;;15.90;99.90;;;;;;5030667;28;20118;-87
2023/08/30 08:09:41;;;;;;;12.73;6.45;;;15.90;99.90;;;;;;5040604;28;20184;-86
2023/08/30 08:12:06;;;;;;;12.02;6.57;;;16.00;99.90;;;;;;5029581;28;20079;-87
2023/08/30 08:14:32;;;;;;;12.80;6.55;;;16.00;99.90;;;;;;5026078;28;20474;-86
2023/08/30 08:16:58;;;;;;;10.48;5.65;;;16.00;99.90;;;;;;5034702;28;20044;-87
2023/08/30 08:19:24;;;;;;;12.38;6.03;;;16.00;99.90;;;;;;5048529;28;20041;-87
2023/08/30 08:21:49;;;;;;;10.90;6.10;;;16.20;99.90;;;;;;5046869;28;20044;-87
2023/08/30 08:24:15;;;;;;;12.52;6.30;;;16.20;99.90;;;;;;5031785;28;20405;-86
2023/08/30 08:26:41;;;;;;;12.20;6.30;;;16.10;99.90;;;;;;5029677;28;20051;-87
2023/08/30 08:29:06;;;;;;;11.30;5.95;;;16.30;99.90;;;;;;5032125;28;20098;-87
2023/08/30 08:31:32;;;;;;;11.02;5.88;;;16.30;99.90;;;;;;5026842;28;20486;-86
2023/08/30 08:34:10;;;;;;;11.90;6.50;;;16.20;99.90;;;;;;5048760;28;20037;-87
2023/08/30 08:36:36;;;;;;;12.00;6.63;;;16.30;99.90;;;;;;5063163;28;20460;-87
2023/08/30 08:39:04;;;;;;;12.55;6.65;;;16.40;99.90;;;;;;5031598;28;20044;-87
2023/08/30 08:41:41;;;;;;;10.93;5.93;;;16.40;99.90;;;;;;5043934;28;20557;-86
2023/08/30 08:44:08;;;;;;;11.13;5.80;;;16.50;99.90;;;;;;5031577;28;20045;-88
2023/08/30 08:46:36;;;;;;;11.35;6.00;;;16.60;99.90;;;;;;5045642;28;20502;-86
2023/08/30 08:49:11;;;;;;;11.18;6.10;;;16.70;99.90;;;;;;5051820;28;20045;-87
2023/08/30 08:51:39;;;;;;;10.90;6.10;;;16.60;99.90;;;;;;5051252;28;20419;-87
2023/08/30 08:54:05;;;;;;;11.80;6.15;;;16.70;99.90;;;;;;5051594;28;20048;-86
2023/08/30 08:56:33;;;;;;;11.73;5.97;;;16.80;99.90;;;;;;5068492;28;20440;-86
2023/08/30 08:58:59;;;;;;;11.20;5.68;;;16.80;99.90;;;;;;5032359;28;20041;-86
2023/08/30 09:01:25;;;;;;;11.13;5.88;;;16.90;99.90;;;;;;5047001;28;20459;-87
2023/08/30 09:03:51;;;;;;;11.73;6.18;;;17.00;99.90;;;;;;5035667;28;20049;-87
2023/08/30 09:06:18;;;;;;;11.45;6.28;;;17.00;99.90;;;;;;5042608;28;20094;-86
2023/08/30 09:08:44;;;;;;;11.98;6.32;;;17.00;99.90;;;;;;5068774;28;20049;-87
2023/08/30 09:11:10;;;;;;;13.32;5.97;;;17.00;99.90;;;;;;5051032;28;20541;-87
2023/08/30 09:13:35;;;;;;;10.98;5.65;;;17.00;99.90;;;;;;5051452;28;20136;-87
2023/08/30 09:16:02;;;;;;;11.15;5.70;;;17.00;99.90;;;;;;5014788;28;20128;-87
2023/08/30 09:18:28;;;;;;;10.13;5.57;;;17.00;99.90;;;;;;5050610;28;20062;-86
2023/08/30 09:21:14;;;;;;;10.85;5.53;;;17.00;99.90;;;;;;5051523;28;20132;-86
2023/08/30 09:23:40;;;;;;;10.13;5.10;;;16.90;99.90;;;;;;5047461;28;20059;-87
2023/08/30 09:26:06;;;;;;;11.27;5.35;;;16.90;99.90;;;;;;5028286;28;20045;-86
2023/08/30 09:28:42;;;;;;;11.30;5.82;;;16.80;99.90;;;;;;5031415;28;20049;-87
2023/08/30 09:31:07;;;;;;;11.77;5.55;;;16.70;99.90;;;;;;5045690;28;20086;-88
2023/08/30 09:33:33;;;;;;;10.77;5.13;;;16.60;99.90;;;;;;5048089;28;20486;-87
2023/08/30 09:36:00;;;;;;;11.07;5.70;;;16.60;99.90;;;;;;5025444;28;20055;-87
2023/08/30 09:38:26;;;;;;;11.25;4.97;;;16.50;99.90;;;;;;5050977;28;20072;-87
2023/08/30 09:41:02;;;;;;;11.07;5.60;;;16.50;99.90;;;;;;5054315;28;20048;-87
2023/08/30 09:43:28;;;;;;;12.27;5.35;;;16.50;99.90;;;;;;5041838;28;20045;-87
2023/08/30 09:45:53;;;;;;;10.05;5.43;;;16.50;99.90;;;;;;5034654;28;20178;-88
2023/08/30 09:48:27;;;;;;;10.43;5.65;;;16.50;99.90;;;;;;5067682;28;20072;-87
2023/08/30 09:50:56;;;;;;;10.52;5.35;;;16.50;99.90;;;;;;5046910;28;20041;-87
2023/08/30 09:53:26;;;;;;;11.40;5.65;;;16.50;99.90;;;;;;5069098;28;20098;-87
2023/08/30 09:55:52;;;;;;;11.73;5.55;;;16.40;99.90;;;;;;5035073;28;20048;-87
2023/08/30 09:58:21;;;;;;;10.73;5.45;;;16.40;99.90;;;;;;5031769;28;20452;-87
2023/08/30 10:00:47;;;;;;;11.35;5.70;;;16.40;99.90;;;;;;5053667;28;20052;-86
2023/08/30 10:03:13;;;;;;;10.65;5.53;;;16.30;99.90;;;;;;5040248;28;20064;-86
2023/08/30 10:05:40;;;;;;;9.85;5.43;;;16.30;99.90;;;;;;5026183;28;20036;-87
2023/08/30 10:08:09;;;;;;;11.23;5.78;;;16.30;99.90;;;;;;5036894;28;20045;-88
2023/08/30 10:10:35;;;;;;;11.18;5.80;;;16.30;99.90;;;;;;5037170;28;20064;-87
2023/08/30 10:13:02;;;;;;;11.32;6.18;;;16.40;99.90;;;;;;5029473;28;20029;-88
2023/08/30 10:15:35;;;;;;;12.25;5.90;;;16.40;99.90;;;;;;5056918;28;20032;-87
2023/08/30 10:18:02;;;;;;;11.63;5.40;;;16.50;99.90;;;;;;5039751;28;20095;-88
2023/08/30 10:20:29;;;;;;;11.40;5.72;;;16.50;99.90;;;;;;5039160;28;20497;-89
2023/08/30 10:22:56;;;;;;;10.40;5.30;;;16.60;99.90;;;;;;5034042;28;20037;-87
2023/08/30 10:25:27;;;;;;;11.13;5.60;;;16.60;99.90;;;;;;5058875;28;20059;-88
2023/08/30 10:27:55;;;;;;;11.02;5.32;;;16.80;99.90;;;;;;5068400;28;20047;-88
2023/08/30 10:30:22;;;;;;;10.73;5.40;;;16.90;99.90;;;;;;5037379;28;20059;-88
2023/08/30 10:32:48;;;;;;;11.77;5.30;;;17.10;99.90;;;;;;5010760;28;20041;-86
2023/08/30 10:35:16;;;;;;;9.48;4.78;;;17.20;99.90;;;;;;5029075;28;20040;-87
2023/08/30 10:37:42;;;;;;;9.80;4.85;;;17.40;99.90;;;;;;5034814;28;20040;-89
2023/08/30 10:40:10;;;;;;;9.43;4.50;;;17.50;99.90;;;;;;5064697;28;20037;-87
2023/08/30 10:42:35;;;;;;;9.05;3.67;;;17.50;99.90;;;;;;5033555;28;20040;-88
2023/08/30 10:45:04;;;;;;;8.55;4.30;;;17.60;99.90;;;;;;5027291;28;20045;-88
2023/08/30 10:47:32;;;;;;;9.48;4.20;;;17.60;99.90;;;;;;5030558;28;20460;-87
2023/08/30 10:49:59;;;;;;;9.23;4.07;;;17.60;99.90;;;;;;5040819;28;20033;-87
2023/08/30 10:52:27;;;;;;;9.68;4.53;;;17.50;99.90;;;;;;5049108;28;20036;-88
2023/08/30 10:54:52;;;;;;;10.23;5.38;;;17.50;99.90;;;;;;5036755;28;20049;-88
2023/08/30 10:57:20;;;;;;;11.32;5.60;;;17.50;99.90;;;;;;5020392;28;20033;-88
2023/08/30 11:00:09;;;;;;;9.55;5.20;;;17.50;99.90;;;;;;5056610;28;20037;-88
2023/08/30 11:02:37;;;;;;;10.35;5.25;;;17.50;99.90;;;;;;5048182;28;20044;-88
2023/08/30 11:05:05;;;;;;;10.40;4.90;;;17.50;99.90;;;;;;5045957;28;20398;-88
2023/08/30 11:07:31;;;;;;;9.65;4.80;;;17.60;99.90;;;;;;5034677;28;20036;-89
2023/08/30 11:09:58;;;;;;;9.80;4.85;;;17.60;99.90;;;;;;5034074;28;20037;-88
2023/08/30 11:12:29;;;;;;;9.95;4.75;;;17.70;99.90;;;;;;5033329;28;20623;-88
2023/08/30 11:14:55;;;;;;;8.93;3.80;;;17.80;99.90;;;;;;5048554;28;20047;-88
2023/08/30 11:17:21;;;;;;;9.75;4.40;;;17.90;99.90;;;;;;5048275;28;20036;-88
2023/08/30 11:19:50;;;;;;;8.52;3.67;;;17.90;99.90;;;;;;5023597;28;20120;-88
2023/08/30 11:22:17;;;;;;;9.13;3.22;;;17.90;99.90;;;;;;5038367;28;20447;-87
2023/08/30 11:24:43;;;;;;;8.02;3.20;;;17.80;99.90;;;;;;5060306;28;20044;-88
2023/08/30 11:27:09;;;;;;;7.22;2.75;;;17.70;99.90;;;;;;5044373;28;21552;-87
2023/08/30 11:29:35;;;;;;;8.07;2.83;;;17.60;99.90;;;;;;5020614;28;20072;-87
2023/08/30 11:32:01;;;;;;;8.27;2.65;;;17.50;99.90;;;;;;5033274;28;20079;-87
2023/08/30 11:34:27;;;;;;;7.72;2.80;;;17.50;99.90;;;;;;5031182;28;20107;-87
2023/08/30 11:36:53;;;;;;;7.05;2.53;;;17.50;99.90;;;;;;5053943;28;20565;-88
2023/08/30 11:39:20;;;;;;;8.02;3.00;;;17.50;99.90;;;;;;5058642;28;20040;-88
2023/08/30 11:41:47;;;;;;;8.27;3.03;;;17.50;99.90;;;;;;5028416;28;20051;-88
2023/08/30 11:44:13;;;;;;;7.93;2.90;;;17.50;99.90;;;;;;5053064;28;20047;-87
2023/08/30 11:46:38;;;;;;;7.78;3.10;;;17.50;99.90;;;;;;5052064;28;20405;-88
2023/08/30 11:49:05;;;;;;;7.53;3.25;;;17.50;99.90;;;;;;5039653;28;20037;-89
2023/08/30 11:51:32;;;;;;;9.20;3.20;;;17.60;99.90;;;;;;5027852;28;20144;-87
2023/08/30 11:53:58;;;;;;;8.70;3.78;;;17.50;99.90;;;;;;5046051;28;20090;-88
2023/08/30 11:56:25;;;;;;;7.78;2.95;;;17.50;99.90;;;;;;5028908;28;20029;-87
2023/08/30 11:58:51;;;;;;;7.30;3.10;;;18.60;99.90;;;;;;5025238;28;20194;-88
2023/08/30 12:01:19;;;;;;;8.20;3.45;;;17.40;99.90;;;;;;5019905;28;20124;-88
2023/08/30 12:03:50;;;;;;;8.10;3.50;;;17.30;99.90;;;;;;5048793;28;20501;-87
2023/08/30 12:06:16;;;;;;;8.77;3.97;;;17.20;99.90;;;;;;5022597;28;20041;-89
2023/08/30 12:08:42;;;;;;;8.45;3.90;;;17.20;99.90;;;;;;5067123;28;20413;-88
2023/08/30 12:11:20;;;;;;;10.73;4.10;;;17.10;99.90;;;;;;5051633;28;20309;-88
2023/08/30 12:13:47;;;;;;;9.05;4.22;;;17.10;99.90;;;;;;5039748;28;20131;-88
2023/08/30 12:16:17;;;;;;;9.95;4.47;;;17.00;99.90;;;;;;5051698;28;20052;-88
2023/08/30 12:18:44;;;;;;;8.95;4.10;;;17.00;99.90;;;;;;5044431;28;20120;-88
2023/08/30 12:21:09;;;;;;;8.35;3.90;;;16.90;99.90;;;;;;5027323;28;20120;-87
2023/08/30 12:23:35;;;;;;;9.20;4.60;;;16.90;99.90;;;;;;5031339;28;20132;-87
2023/08/30 12:26:04;;;;;;;9.90;4.70;;;16.90;99.90;;;;;;5029223;28;20074;-88
2023/08/30 12:28:31;;;;;;;9.68;4.82;;;16.80;99.90;;;;;;5048449;28;20048;-87
2023/08/30 12:30:57;;;;;;;10.40;5.68;;;16.70;99.90;;;;;;5042919;28;20041;-88
2023/08/30 12:33:31;;;;;;;9.68;5.20;;;16.70;99.90;;;;;;5023755;28;20039;-88
2023/08/30 12:35:57;;;;;;;9.50;5.15;;;16.60;99.90;;;;;;5025922;28;20036;-88